Aviation Digital Data Service (ADDS)

Output produced by METARs form (1748 UTC 26 October 2021)
found at http://aviationweather.gov/metar/data/
 
METAR text: KPGV 261735Z AUTO 30008KT 253V313 7SM CLR 21/11 A2967 RMK AO2
Conditions at: KPGV (PITT GREENVILLE , NC, US) observed 1735 UTC 26 October 2021
Temperature: 21.0°C (70°F)
Dewpoint: 11.0°C (52°F) [RH = 53%]
Pressure (altimeter): 29.67 inches Hg (1004.8 mb)
Winds: from the WNW (300 degrees) at 9 MPH (8 knots; 4.1 m/s)
Visibility: 7 miles (11 km)
Ceiling: at least 12,000 feet AGL
Clouds: sky clear below 12,000 feet AGL
Weather: automated observation with no human augmentation;
there may or may not be significant weather present at this time

METAR text: KPGV 261715Z AUTO 30006KT 10SM CLR 21/11 A2968 RMK AO2
Conditions at: KPGV (PITT GREENVILLE , NC, US) observed 1715 UTC 26 October 2021
Temperature: 21.0°C (70°F)
Dewpoint: 11.0°C (52°F) [RH = 53%]
Pressure (altimeter): 29.68 inches Hg (1005.2 mb)
Winds: from the WNW (300 degrees) at 7 MPH (6 knots; 3.1 m/s)
Visibility: 10 or more miles (16+ km)
Ceiling: at least 12,000 feet AGL
Clouds: sky clear below 12,000 feet AGL
Weather: automated observation with no human augmentation;
there may or may not be significant weather present at this time

METAR text: KPGV 261655Z AUTO 31006KT 10SM CLR 20/10 A2969 RMK AO2
Conditions at: KPGV (PITT GREENVILLE , NC, US) observed 1655 UTC 26 October 2021
Temperature: 20.0°C (68°F)
Dewpoint: 10.0°C (50°F) [RH = 53%]
Pressure (altimeter): 29.69 inches Hg (1005.5 mb)
Winds: from the NW (310 degrees) at 7 MPH (6 knots; 3.1 m/s)
Visibility: 10 or more miles (16+ km)
Ceiling: at least 12,000 feet AGL
Clouds: sky clear below 12,000 feet AGL
Weather: automated observation with no human augmentation;
there may or may not be significant weather present at this time

METAR text: KPGV 261635Z AUTO 31008G16KT 7SM SCT055 21/11 A2970 RMK AO2
Conditions at: KPGV (PITT GREENVILLE , NC, US) observed 1635 UTC 26 October 2021
Temperature: 21.0°C (70°F)
Dewpoint: 11.0°C (52°F) [RH = 53%]
Pressure (altimeter): 29.70 inches Hg (1005.8 mb)
Winds: from the NW (310 degrees) at 9 MPH (8 knots; 4.1 m/s)
gusting to 18 MPH (16 knots; 8.2 m/s)
Visibility: 7 miles (11 km)
Ceiling: at least 12,000 feet AGL
Clouds: scattered clouds at 5500 feet AGL
Weather: automated observation with no human augmentation;
there may or may not be significant weather present at this time

METAR text: KPGV 261615Z AUTO 28008KT 10SM SCT055 20/11 A2970 RMK AO2
Conditions at: KPGV (PITT GREENVILLE , NC, US) observed 1615 UTC 26 October 2021
Temperature: 20.0°C (68°F)
Dewpoint: 11.0°C (52°F) [RH = 56%]
Pressure (altimeter): 29.70 inches Hg (1005.8 mb)
Winds: from the W (280 degrees) at 9 MPH (8 knots; 4.1 m/s)
Visibility: 10 or more miles (16+ km)
Ceiling: at least 12,000 feet AGL
Clouds: scattered clouds at 5500 feet AGL
Weather: automated observation with no human augmentation;
there may or may not be significant weather present at this time

METAR text: KPGV 261555Z AUTO 32005KT 10SM CLR 19/10 A2970 RMK AO2
Conditions at: KPGV (PITT GREENVILLE , NC, US) observed 1555 UTC 26 October 2021
Temperature: 19.0°C (66°F)
Dewpoint: 10.0°C (50°F) [RH = 56%]
Pressure (altimeter): 29.70 inches Hg (1005.8 mb)
Winds: from the NW (320 degrees) at 6 MPH (5 knots; 2.6 m/s)
Visibility: 10 or more miles (16+ km)
Ceiling: at least 12,000 feet AGL
Clouds: sky clear below 12,000 feet AGL
Weather: automated observation with no human augmentation;
there may or may not be significant weather present at this time

Forecast for: KPGV (PITT GREENVILLE , NC, US)
Text: KPGV 261120Z 2612/2712 31007KT P6SM FEW250
Forecast period: 1200 to 1500 UTC 26 October 2021
Forecast type: FROM: standard forecast or significant change
Winds: from the NW (310 degrees) at 8 MPH (7 knots; 3.6 m/s)
Visibility: 6 or more miles (10+ km)
Ceiling: at least 12,000 feet AGL
Clouds: few clouds at 25000 feet AGL
Weather: no significant weather forecast for this period
Text: FM261500 30013G25KT P6SM FEW035
Forecast period: 1500 UTC 26 October 2021 to 0000 UTC 27 October 2021
Forecast type: FROM: standard forecast or significant change
Winds: from the WNW (300 degrees) at 15 MPH (13 knots; 6.7 m/s)
gusting to 29 MPH (25 knots; 12.9 m/s)
Visibility: 6 or more miles (10+ km)
Ceiling: at least 12,000 feet AGL
Clouds: few clouds at 3500 feet AGL
Weather: no significant weather forecast for this period
Text: FM270000 30010KT P6SM FEW250 WS020/31040KT AMD LTD TO CLD VIS AND WIND
Forecast period: 0000 to 1200 UTC 27 October 2021
Forecast type: FROM: standard forecast or significant change
Winds: from the WNW (300 degrees) at 12 MPH (10 knots; 5.1 m/s)
Visibility: 6 or more miles (10+ km)
Ceiling: at least 12,000 feet AGL
Clouds: few clouds at 25000 feet AGL
Wind Shear: at 2000 feet ( 610 m) AGL, from the NW (310 degrees) at 46 MPH (40 knots; 20.8 m/s)
Weather: no significant weather forecast for this period